sensor_id;sensor_type;location;lat;lon;timestamp;P1;durP1;ratioP1;P2;durP2;ratioP2
46110;SDS011;31849;55.992;37.252;2022-08-19T00:02:54;14.07;;;8.53;;
46110;SDS011;31849;55.992;37.252;2022-08-19T00:07:58;13.50;;;7.90;;
46110;SDS011;31849;55.992;37.252;2022-08-19T00:13:02;12.55;;;7.32;;
46110;SDS011;31849;55.992;37.252;2022-08-19T00:18:07;12.77;;;7.47;;
46110;SDS011;31849;55.992;37.252;2022-08-19T00:23:10;13.32;;;8.07;;
46110;SDS011;31849;55.992;37.252;2022-08-19T00:28:14;14.70;;;7.80;;
46110;SDS011;31849;55.992;37.252;2022-08-19T00:38:23;14.07;;;8.02;;
46110;SDS011;31849;55.992;37.252;2022-08-19T00:43:38;16.92;;;8.13;;
46110;SDS011;31849;55.992;37.252;2022-08-19T00:48:44;12.82;;;8.23;;
46110;SDS011;31849;55.992;37.252;2022-08-19T00:53:47;12.27;;;8.48;;
46110;SDS011;31849;55.992;37.252;2022-08-19T00:58:51;16.63;;;7.90;;
46110;SDS011;31849;55.992;37.252;2022-08-19T01:03:57;16.02;;;8.95;;
46110;SDS011;31849;55.992;37.252;2022-08-19T01:09:00;20.02;;;8.15;;
46110;SDS011;31849;55.992;37.252;2022-08-19T01:14:04;19.47;;;8.50;;
46110;SDS011;31849;55.992;37.252;2022-08-19T01:19:12;15.75;;;8.30;;
46110;SDS011;31849;55.992;37.252;2022-08-19T01:24:24;11.27;;;7.28;;
46110;SDS011;31849;55.992;37.252;2022-08-19T01:29:27;13.65;;;7.90;;
46110;SDS011;31849;55.992;37.252;2022-08-19T01:34:32;12.40;;;6.95;;
46110;SDS011;31849;55.992;37.252;2022-08-19T01:39:37;13.73;;;7.27;;
46110;SDS011;31849;55.992;37.252;2022-08-19T01:44:42;13.18;;;6.57;;
46110;SDS011;31849;55.992;37.252;2022-08-19T01:49:45;11.03;;;7.10;;
46110;SDS011;31849;55.992;37.252;2022-08-19T01:54:51;10.73;;;6.60;;
46110;SDS011;31849;55.992;37.252;2022-08-19T01:59:55;13.63;;;6.20;;
46110;SDS011;31849;55.992;37.252;2022-08-19T02:04:59;10.48;;;6.47;;
46110;SDS011;31849;55.992;37.252;2022-08-19T02:10:06;8.90;;;6.28;;
46110;SDS011;31849;55.992;37.252;2022-08-19T02:15:14;10.40;;;6.15;;
46110;SDS011;31849;55.992;37.252;2022-08-19T02:20:17;11.13;;;5.93;;
46110;SDS011;31849;55.992;37.252;2022-08-19T02:25:22;10.77;;;5.67;;
46110;SDS011;31849;55.992;37.252;2022-08-19T02:30:26;14.20;;;6.25;;
46110;SDS011;31849;55.992;37.252;2022-08-19T02:35:29;11.10;;;5.20;;
46110;SDS011;31849;55.992;37.252;2022-08-19T02:40:34;10.35;;;5.22;;
46110;SDS011;31849;55.992;37.252;2022-08-19T02:45:38;15.98;;;6.40;;
46110;SDS011;31849;55.992;37.252;2022-08-19T02:55:55;10.93;;;5.88;;
46110;SDS011;31849;55.992;37.252;2022-08-19T03:01:02;8.57;;;5.43;;
46110;SDS011;31849;55.992;37.252;2022-08-19T03:06:06;11.03;;;5.37;;
46110;SDS011;31849;55.992;37.252;2022-08-19T03:11:16;12.88;;;4.90;;
46110;SDS011;31849;55.992;37.252;2022-08-19T03:16:22;11.90;;;5.05;;
46110;SDS011;31849;55.992;37.252;2022-08-19T03:21:28;10.00;;;4.97;;
46110;SDS011;31849;55.992;37.252;2022-08-19T03:26:37;9.32;;;5.22;;
46110;SDS011;31849;55.992;37.252;2022-08-19T03:31:42;10.35;;;4.68;;
46110;SDS011;31849;55.992;37.252;2022-08-19T03:36:53;14.43;;;4.70;;
46110;SDS011;31849;55.992;37.252;2022-08-19T03:41:59;5.80;;;4.00;;
46110;SDS011;31849;55.992;37.252;2022-08-19T03:47:24;13.68;;;5.00;;
46110;SDS011;31849;55.992;37.252;2022-08-19T03:52:27;13.77;;;4.87;;
46110;SDS011;31849;55.992;37.252;2022-08-19T03:57:32;10.50;;;4.67;;
46110;SDS011;31849;55.992;37.252;2022-08-19T04:02:36;7.25;;;4.40;;
46110;SDS011;31849;55.992;37.252;2022-08-19T04:07:39;5.97;;;4.45;;
46110;SDS011;31849;55.992;37.252;2022-08-19T04:12:44;11.05;;;4.97;;
46110;SDS011;31849;55.992;37.252;2022-08-19T04:17:49;10.98;;;4.70;;
46110;SDS011;31849;55.992;37.252;2022-08-19T04:22:53;9.43;;;4.10;;
46110;SDS011;31849;55.992;37.252;2022-08-19T04:27:57;8.67;;;3.90;;
46110;SDS011;31849;55.992;37.252;2022-08-19T04:33:01;10.93;;;3.92;;
46110;SDS011;31849;55.992;37.252;2022-08-19T04:38:06;9.63;;;3.83;;
46110;SDS011;31849;55.992;37.252;2022-08-19T04:43:13;11.13;;;3.80;;
46110;SDS011;31849;55.992;37.252;2022-08-19T04:48:17;8.65;;;3.95;;
46110;SDS011;31849;55.992;37.252;2022-08-19T04:53:29;9.77;;;3.92;;
46110;SDS011;31849;55.992;37.252;2022-08-19T04:58:40;9.18;;;3.67;;
46110;SDS011;31849;55.992;37.252;2022-08-19T05:03:46;8.45;;;4.07;;
46110;SDS011;31849;55.992;37.252;2022-08-19T05:08:50;6.68;;;3.72;;
46110;SDS011;31849;55.992;37.252;2022-08-19T05:13:56;9.10;;;3.95;;
46110;SDS011;31849;55.992;37.252;2022-08-19T05:19:00;10.23;;;4.03;;
46110;SDS011;31849;55.992;37.252;2022-08-19T05:24:21;9.10;;;3.83;;
46110;SDS011;31849;55.992;37.252;2022-08-19T05:29:27;7.45;;;3.65;;
46110;SDS011;31849;55.992;37.252;2022-08-19T05:34:37;7.05;;;3.83;;
46110;SDS011;31849;55.992;37.252;2022-08-19T05:39:41;7.18;;;3.47;;
46110;SDS011;31849;55.992;37.252;2022-08-19T05:44:49;9.95;;;4.13;;
46110;SDS011;31849;55.992;37.252;2022-08-19T05:49:53;9.68;;;3.90;;
46110;SDS011;31849;55.992;37.252;2022-08-19T05:54:56;8.90;;;3.80;;
46110;SDS011;31849;55.992;37.252;2022-08-19T06:00:01;8.93;;;3.78;;
46110;SDS011;31849;55.992;37.252;2022-08-19T06:05:11;5.93;;;3.45;;
46110;SDS011;31849;55.992;37.252;2022-08-19T06:10:14;5.50;;;3.72;;
46110;SDS011;31849;55.992;37.252;2022-08-19T06:15:19;7.15;;;3.88;;
46110;SDS011;31849;55.992;37.252;2022-08-19T06:20:27;8.00;;;3.67;;
46110;SDS011;31849;55.992;37.252;2022-08-19T06:25:51;8.82;;;3.92;;
46110;SDS011;31849;55.992;37.252;2022-08-19T06:30:56;6.10;;;3.90;;
46110;SDS011;31849;55.992;37.252;2022-08-19T06:35:59;9.45;;;3.88;;
46110;SDS011;31849;55.992;37.252;2022-08-19T06:41:03;6.03;;;3.60;;
46110;SDS011;31849;55.992;37.252;2022-08-19T06:46:14;8.65;;;4.15;;
46110;SDS011;31849;55.992;37.252;2022-08-19T06:51:19;6.38;;;3.83;;
46110;SDS011;31849;55.992;37.252;2022-08-19T06:56:25;10.68;;;3.85;;
46110;SDS011;31849;55.992;37.252;2022-08-19T07:01:37;9.82;;;3.90;;
46110;SDS011;31849;55.992;37.252;2022-08-19T07:06:42;6.38;;;4.10;;
46110;SDS011;31849;55.992;37.252;2022-08-19T07:11:55;8.50;;;4.10;;
46110;SDS011;31849;55.992;37.252;2022-08-19T07:17:01;7.45;;;4.30;;
46110;SDS011;31849;55.992;37.252;2022-08-19T07:22:06;13.27;;;5.00;;
46110;SDS011;31849;55.992;37.252;2022-08-19T07:27:14;8.25;;;4.55;;
46110;SDS011;31849;55.992;37.252;2022-08-19T07:32:20;10.25;;;4.45;;
46110;SDS011;31849;55.992;37.252;2022-08-19T07:37:24;10.35;;;4.10;;
46110;SDS011;31849;55.992;37.252;2022-08-19T07:42:33;6.63;;;3.63;;
46110;SDS011;31849;55.992;37.252;2022-08-19T07:52:51;9.00;;;4.30;;
46110;SDS011;31849;55.992;37.252;2022-08-19T08:02:59;11.03;;;4.63;;
46110;SDS011;31849;55.992;37.252;2022-08-19T08:08:03;12.25;;;4.35;;
46110;SDS011;31849;55.992;37.252;2022-08-19T08:13:48;9.02;;;5.00;;
46110;SDS011;31849;55.992;37.252;2022-08-19T08:19:06;6.15;;;4.50;;
46110;SDS011;31849;55.992;37.252;2022-08-19T08:24:26;7.28;;;4.80;;
46110;SDS011;31849;55.992;37.252;2022-08-19T08:29:32;6.90;;;4.15;;
46110;SDS011;31849;55.992;37.252;2022-08-19T08:34:37;8.73;;;4.35;;
46110;SDS011;31849;55.992;37.252;2022-08-19T08:39:40;13.07;;;4.05;;
46110;SDS011;31849;55.992;37.252;2022-08-19T08:44:47;8.88;;;3.40;;
46110;SDS011;31849;55.992;37.252;2022-08-19T08:50:06;10.02;;;3.50;;
46110;SDS011;31849;55.992;37.252;2022-08-19T08:55:15;10.82;;;3.40;;
46110;SDS011;31849;55.992;37.252;2022-08-19T09:00:22;10.20;;;3.30;;
46110;SDS011;31849;55.992;37.252;2022-08-19T09:05:33;11.35;;;3.88;;
46110;SDS011;31849;55.992;37.252;2022-08-19T09:10:50;8.20;;;3.42;;
46110;SDS011;31849;55.992;37.252;2022-08-19T09:15:57;10.73;;;3.30;;
46110;SDS011;31849;55.992;37.252;2022-08-19T09:21:06;7.13;;;3.17;;
46110;SDS011;31849;55.992;37.252;2022-08-19T09:26:14;6.50;;;3.30;;
46110;SDS011;31849;55.992;37.252;2022-08-19T09:31:22;7.85;;;3.38;;
46110;SDS011;31849;55.992;37.252;2022-08-19T09:36:30;6.80;;;3.10;;
46110;SDS011;31849;55.992;37.252;2022-08-19T09:41:36;7.80;;;2.90;;
46110;SDS011;31849;55.992;37.252;2022-08-19T09:46:41;8.98;;;3.15;;
46110;SDS011;31849;55.992;37.252;2022-08-19T09:51:46;8.63;;;3.10;;
46110;SDS011;31849;55.992;37.252;2022-08-19T09:56:52;4.28;;;2.90;;
46110;SDS011;31849;55.992;37.252;2022-08-19T10:07:12;7.38;;;3.75;;
46110;SDS011;31849;55.992;37.252;2022-08-19T10:12:16;7.60;;;4.40;;
46110;SDS011;31849;55.992;37.252;2022-08-19T10:17:20;8.90;;;4.10;;
46110;SDS011;31849;55.992;37.252;2022-08-19T10:22:33;8.43;;;4.20;;
46110;SDS011;31849;55.992;37.252;2022-08-19T10:27:39;6.10;;;4.05;;
46110;SDS011;31849;55.992;37.252;2022-08-19T10:32:48;9.55;;;4.57;;
46110;SDS011;31849;55.992;37.252;2022-08-19T10:43:02;7.28;;;4.28;;
46110;SDS011;31849;55.992;37.252;2022-08-19T10:48:06;8.98;;;4.30;;
46110;SDS011;31849;55.992;37.252;2022-08-19T10:53:17;9.30;;;4.20;;
46110;SDS011;31849;55.992;37.252;2022-08-19T10:58:25;10.60;;;4.10;;
46110;SDS011;31849;55.992;37.252;2022-08-19T11:08:33;6.70;;;3.90;;
46110;SDS011;31849;55.992;37.252;2022-08-19T11:13:41;8.93;;;3.80;;
46110;SDS011;31849;55.992;37.252;2022-08-19T11:18:46;8.10;;;3.60;;
46110;SDS011;31849;55.992;37.252;2022-08-19T11:23:54;12.13;;;3.70;;
46110;SDS011;31849;55.992;37.252;2022-08-19T11:29:00;10.65;;;3.85;;
46110;SDS011;31849;55.992;37.252;2022-08-19T11:34:06;7.75;;;3.67;;
46110;SDS011;31849;55.992;37.252;2022-08-19T11:39:14;9.02;;;4.07;;
46110;SDS011;31849;55.992;37.252;2022-08-19T11:44:19;11.30;;;3.67;;
46110;SDS011;31849;55.992;37.252;2022-08-19T11:54:27;10.27;;;4.00;;
46110;SDS011;31849;55.992;37.252;2022-08-19T11:59:30;6.85;;;3.72;;
46110;SDS011;31849;55.992;37.252;2022-08-19T12:04:34;8.52;;;4.20;;
46110;SDS011;31849;55.992;37.252;2022-08-19T12:09:39;13.80;;;4.22;;
46110;SDS011;31849;55.992;37.252;2022-08-19T12:14:43;5.97;;;3.50;;
46110;SDS011;31849;55.992;37.252;2022-08-19T12:19:48;7.03;;;3.63;;
46110;SDS011;31849;55.992;37.252;2022-08-19T12:24:53;8.77;;;4.43;;
46110;SDS011;31849;55.992;37.252;2022-08-19T12:29:56;5.97;;;4.72;;
46110;SDS011;31849;55.992;37.252;2022-08-19T12:35:04;8.20;;;4.43;;
46110;SDS011;31849;55.992;37.252;2022-08-19T12:40:10;6.25;;;3.55;;
46110;SDS011;31849;55.992;37.252;2022-08-19T12:45:14;7.57;;;3.42;;
46110;SDS011;31849;55.992;37.252;2022-08-19T12:50:18;11.25;;;4.57;;
46110;SDS011;31849;55.992;37.252;2022-08-19T12:55:24;9.88;;;3.55;;
46110;SDS011;31849;55.992;37.252;2022-08-19T13:00:29;8.02;;;3.55;;
46110;SDS011;31849;55.992;37.252;2022-08-19T13:05:34;7.85;;;3.63;;
46110;SDS011;31849;55.992;37.252;2022-08-19T13:10:39;7.43;;;3.47;;
46110;SDS011;31849;55.992;37.252;2022-08-19T13:15:43;9.10;;;3.50;;
46110;SDS011;31849;55.992;37.252;2022-08-19T13:20:46;6.65;;;2.97;;
46110;SDS011;31849;55.992;37.252;2022-08-19T13:25:58;8.35;;;3.92;;
46110;SDS011;31849;55.992;37.252;2022-08-19T13:31:02;6.25;;;4.10;;
46110;SDS011;31849;55.992;37.252;2022-08-19T13:36:23;9.77;;;3.97;;
46110;SDS011;31849;55.992;37.252;2022-08-19T13:41:28;8.00;;;4.20;;
46110;SDS011;31849;55.992;37.252;2022-08-19T13:46:32;6.38;;;4.30;;
46110;SDS011;31849;55.992;37.252;2022-08-19T13:51:35;8.35;;;4.50;;
46110;SDS011;31849;55.992;37.252;2022-08-19T13:56:44;14.45;;;4.20;;
46110;SDS011;31849;55.992;37.252;2022-08-19T14:01:48;8.40;;;4.45;;
46110;SDS011;31849;55.992;37.252;2022-08-19T14:06:52;8.55;;;4.35;;
46110;SDS011;31849;55.992;37.252;2022-08-19T14:11:56;5.82;;;3.70;;
46110;SDS011;31849;55.992;37.252;2022-08-19T14:17:00;10.23;;;4.20;;
46110;SDS011;31849;55.992;37.252;2022-08-19T14:22:05;11.50;;;4.90;;
46110;SDS011;31849;55.992;37.252;2022-08-19T14:27:09;9.70;;;4.88;;
46110;SDS011;31849;55.992;37.252;2022-08-19T14:32:13;9.40;;;4.38;;
46110;SDS011;31849;55.992;37.252;2022-08-19T14:37:17;11.20;;;4.07;;
46110;SDS011;31849;55.992;37.252;2022-08-19T14:42:23;12.82;;;4.70;;
46110;SDS011;31849;55.992;37.252;2022-08-19T14:47:26;7.65;;;4.20;;
46110;SDS011;31849;55.992;37.252;2022-08-19T14:52:33;9.48;;;4.30;;
46110;SDS011;31849;55.992;37.252;2022-08-19T14:57:38;8.25;;;4.53;;
46110;SDS011;31849;55.992;37.252;2022-08-19T15:02:43;10.50;;;4.10;;
46110;SDS011;31849;55.992;37.252;2022-08-19T15:07:46;9.35;;;3.75;;
46110;SDS011;31849;55.992;37.252;2022-08-19T15:12:51;10.85;;;4.45;;
46110;SDS011;31849;55.992;37.252;2022-08-19T15:17:56;10.27;;;5.03;;
46110;SDS011;31849;55.992;37.252;2022-08-19T15:23:03;8.55;;;4.75;;
46110;SDS011;31849;55.992;37.252;2022-08-19T15:28:09;7.80;;;3.60;;
46110;SDS011;31849;55.992;37.252;2022-08-19T15:33:13;14.82;;;4.40;;
46110;SDS011;31849;55.992;37.252;2022-08-19T15:38:17;9.38;;;4.10;;
46110;SDS011;31849;55.992;37.252;2022-08-19T15:43:24;9.40;;;3.60;;
46110;SDS011;31849;55.992;37.252;2022-08-19T15:48:28;10.43;;;4.10;;
46110;SDS011;31849;55.992;37.252;2022-08-19T15:53:32;7.53;;;3.80;;
46110;SDS011;31849;55.992;37.252;2022-08-19T15:58:37;10.73;;;3.85;;
46110;SDS011;31849;55.992;37.252;2022-08-19T16:03:59;7.55;;;3.88;;
46110;SDS011;31849;55.992;37.252;2022-08-19T16:09:35;9.27;;;3.72;;
46110;SDS011;31849;55.992;37.252;2022-08-19T16:14:40;11.00;;;4.00;;
46110;SDS011;31849;55.992;37.252;2022-08-19T16:19:44;12.27;;;3.80;;
46110;SDS011;31849;55.992;37.252;2022-08-19T16:24:53;13.73;;;4.13;;
46110;SDS011;31849;55.992;37.252;2022-08-19T16:29:58;9.95;;;3.80;;
46110;SDS011;31849;55.992;37.252;2022-08-19T16:35:03;11.90;;;4.25;;
46110;SDS011;31849;55.992;37.252;2022-08-19T16:40:10;9.30;;;3.92;;
46110;SDS011;31849;55.992;37.252;2022-08-19T16:45:16;11.80;;;5.30;;
46110;SDS011;31849;55.992;37.252;2022-08-19T16:50:20;10.80;;;4.40;;
46110;SDS011;31849;55.992;37.252;2022-08-19T16:55:44;12.70;;;4.90;;
46110;SDS011;31849;55.992;37.252;2022-08-19T17:00:53;8.20;;;4.25;;
46110;SDS011;31849;55.992;37.252;2022-08-19T17:06:08;10.23;;;4.82;;
46110;SDS011;31849;55.992;37.252;2022-08-19T17:11:21;10.00;;;4.30;;
46110;SDS011;31849;55.992;37.252;2022-08-19T17:16:28;11.07;;;4.03;;
46110;SDS011;31849;55.992;37.252;2022-08-19T17:21:34;10.90;;;3.67;;
46110;SDS011;31849;55.992;37.252;2022-08-19T17:26:41;11.23;;;4.13;;
46110;SDS011;31849;55.992;37.252;2022-08-19T17:31:46;9.85;;;4.13;;
46110;SDS011;31849;55.992;37.252;2022-08-19T17:36:49;7.72;;;3.97;;
46110;SDS011;31849;55.992;37.252;2022-08-19T17:41:53;14.63;;;4.30;;
46110;SDS011;31849;55.992;37.252;2022-08-19T17:47:04;7.65;;;3.78;;
46110;SDS011;31849;55.992;37.252;2022-08-19T17:52:08;9.75;;;4.15;;
46110;SDS011;31849;55.992;37.252;2022-08-19T18:02:17;10.70;;;6.10;;
46110;SDS011;31849;55.992;37.252;2022-08-19T18:07:22;13.02;;;6.00;;
46110;SDS011;31849;55.992;37.252;2022-08-19T18:12:26;12.77;;;6.07;;
46110;SDS011;31849;55.992;37.252;2022-08-19T18:17:31;13.10;;;6.18;;
46110;SDS011;31849;55.992;37.252;2022-08-19T18:22:37;11.45;;;5.93;;
46110;SDS011;31849;55.992;37.252;2022-08-19T18:27:41;11.20;;;6.65;;
46110;SDS011;31849;55.992;37.252;2022-08-19T18:32:47;11.40;;;5.10;;
46110;SDS011;31849;55.992;37.252;2022-08-19T18:37:53;12.32;;;5.53;;
46110;SDS011;31849;55.992;37.252;2022-08-19T18:42:57;12.15;;;4.68;;
46110;SDS011;31849;55.992;37.252;2022-08-19T18:48:19;10.85;;;4.60;;
46110;SDS011;31849;55.992;37.252;2022-08-19T18:53:41;8.60;;;4.80;;
46110;SDS011;31849;55.992;37.252;2022-08-19T18:58:45;13.00;;;5.72;;
46110;SDS011;31849;55.992;37.252;2022-08-19T19:03:54;14.57;;;5.25;;
46110;SDS011;31849;55.992;37.252;2022-08-19T19:08:57;11.80;;;4.72;;
46110;SDS011;31849;55.992;37.252;2022-08-19T19:14:03;13.95;;;5.57;;
46110;SDS011;31849;55.992;37.252;2022-08-19T19:19:29;13.07;;;5.15;;
46110;SDS011;31849;55.992;37.252;2022-08-19T19:24:34;16.08;;;4.55;;
46110;SDS011;31849;55.992;37.252;2022-08-19T19:34:44;14.68;;;4.07;;
46110;SDS011;31849;55.992;37.252;2022-08-19T19:39:48;15.95;;;4.70;;
46110;SDS011;31849;55.992;37.252;2022-08-19T19:49:58;10.52;;;4.55;;
46110;SDS011;31849;55.992;37.252;2022-08-19T19:55:18;13.73;;;4.60;;
46110;SDS011;31849;55.992;37.252;2022-08-19T20:00:22;9.87;;;4.50;;
46110;SDS011;31849;55.992;37.252;2022-08-19T20:05:28;12.85;;;4.97;;
46110;SDS011;31849;55.992;37.252;2022-08-19T20:10:31;18.10;;;5.50;;
46110;SDS011;31849;55.992;37.252;2022-08-19T20:15:37;10.35;;;5.38;;
46110;SDS011;31849;55.992;37.252;2022-08-19T20:20:44;9.80;;;5.07;;
46110;SDS011;31849;55.992;37.252;2022-08-19T20:25:51;12.95;;;5.07;;
46110;SDS011;31849;55.992;37.252;2022-08-19T20:30:55;15.82;;;5.25;;
46110;SDS011;31849;55.992;37.252;2022-08-19T20:36:00;10.20;;;5.07;;
46110;SDS011;31849;55.992;37.252;2022-08-19T20:41:04;14.30;;;6.13;;
46110;SDS011;31849;55.992;37.252;2022-08-19T20:51:13;12.73;;;5.38;;
46110;SDS011;31849;55.992;37.252;2022-08-19T20:56:17;12.65;;;5.43;;
46110;SDS011;31849;55.992;37.252;2022-08-19T21:01:21;11.50;;;5.90;;
46110;SDS011;31849;55.992;37.252;2022-08-19T21:11:32;11.27;;;5.30;;
46110;SDS011;31849;55.992;37.252;2022-08-19T21:16:36;9.13;;;4.85;;
46110;SDS011;31849;55.992;37.252;2022-08-19T21:21:41;10.35;;;5.57;;
46110;SDS011;31849;55.992;37.252;2022-08-19T21:26:45;13.38;;;5.47;;
46110;SDS011;31849;55.992;37.252;2022-08-19T21:31:52;14.13;;;5.47;;
46110;SDS011;31849;55.992;37.252;2022-08-19T21:36:56;14.03;;;4.93;;
46110;SDS011;31849;55.992;37.252;2022-08-19T21:42:00;9.70;;;4.57;;
46110;SDS011;31849;55.992;37.252;2022-08-19T21:47:03;14.40;;;5.10;;
46110;SDS011;31849;55.992;37.252;2022-08-19T21:52:12;11.30;;;4.70;;
46110;SDS011;31849;55.992;37.252;2022-08-19T21:57:16;16.48;;;5.18;;
46110;SDS011;31849;55.992;37.252;2022-08-19T22:02:19;11.67;;;4.77;;
46110;SDS011;31849;55.992;37.252;2022-08-19T22:07:24;12.40;;;4.50;;
46110;SDS011;31849;55.992;37.252;2022-08-19T22:12:28;15.43;;;4.88;;
46110;SDS011;31849;55.992;37.252;2022-08-19T22:17:33;11.95;;;4.78;;
46110;SDS011;31849;55.992;37.252;2022-08-19T22:22:38;12.37;;;4.83;;
46110;SDS011;31849;55.992;37.252;2022-08-19T22:27:49;10.95;;;4.63;;
46110;SDS011;31849;55.992;37.252;2022-08-19T22:32:57;11.85;;;4.13;;
46110;SDS011;31849;55.992;37.252;2022-08-19T22:38:03;10.75;;;3.80;;
46110;SDS011;31849;55.992;37.252;2022-08-19T22:43:09;14.27;;;4.55;;
46110;SDS011;31849;55.992;37.252;2022-08-19T22:48:17;11.60;;;4.45;;
46110;SDS011;31849;55.992;37.252;2022-08-19T22:53:25;12.30;;;4.25;;
46110;SDS011;31849;55.992;37.252;2022-08-19T22:58:28;11.75;;;3.90;;
46110;SDS011;31849;55.992;37.252;2022-08-19T23:03:33;9.85;;;4.70;;
46110;SDS011;31849;55.992;37.252;2022-08-19T23:08:39;13.57;;;4.90;;
46110;SDS011;31849;55.992;37.252;2022-08-19T23:13:43;8.32;;;4.25;;
46110;SDS011;31849;55.992;37.252;2022-08-19T23:18:47;14.63;;;4.63;;
46110;SDS011;31849;55.992;37.252;2022-08-19T23:23:58;11.25;;;4.72;;
46110;SDS011;31849;55.992;37.252;2022-08-19T23:29:01;9.80;;;4.70;;
46110;SDS011;31849;55.992;37.252;2022-08-19T23:34:26;12.00;;;5.05;;
46110;SDS011;31849;55.992;37.252;2022-08-19T23:39:31;14.93;;;5.40;;
46110;SDS011;31849;55.992;37.252;2022-08-19T23:44:36;10.00;;;5.13;;
46110;SDS011;31849;55.992;37.252;2022-08-19T23:49:53;10.73;;;5.22;;
46110;SDS011;31849;55.992;37.252;2022-08-19T23:55:00;10.33;;;5.60;;
